Time;durP1;ratioP1;P1;durP2;ratioP2;P2;SDS_P1;SDS_P2;PMS_P1;PMS_P2;Temp;Humidity;BMP_temperature;BMP_pressure;BME280_temperature;BME280_humidity;BME280_pressure;Samples;Min_cycle;Max_cycle;Signal;HPM_P1;HPM_P2
2024/04/05 00:00:13;;;;;;;10.80;5.40;;;;;;;5.63;64.33;98872.70;105566;1258;74660;-27
2024/04/05 00:02:46;;;;;;;7.10;3.30;;;;;;;5.43;64.58;98870.36;105478;1254;74465;-28
2024/04/05 00:05:14;;;;;;;14.30;5.30;;;;;;;5.98;65.05;98869.10;105528;1253;71472;-27
2024/04/05 00:07:42;;;;;;;9.20;6.20;;;;;;;6.71;63.41;98864.84;105566;1258;62039;-28
2024/04/05 00:10:10;;;;;;;11.30;6.50;;;;;;;6.87;62.28;98869.27;105402;1259;61225;-27
2024/04/05 00:12:38;;;;;;;11.10;6.30;;;;;;;6.71;61.79;98863.98;105590;1256;73373;-27
2024/04/05 00:15:14;;;;;;;10.20;5.00;;;;;;;6.50;61.66;98867.81;105564;1253;73058;-27
2024/04/05 00:17:41;;;;;;;9.50;4.00;;;;;;;6.31;61.46;98873.89;105615;1254;72639;-28
2024/04/05 00:20:09;;;;;;;3.80;2.80;;;;;;;6.15;61.67;98870.98;105426;1257;61224;-27
2024/04/05 00:22:37;;;;;;;5.20;3.10;;;;;;;6.00;62.07;98868.80;105538;1253;61697;-28
2024/04/05 00:25:04;;;;;;;9.40;3.80;;;;;;;5.90;62.23;98866.87;105553;1259;73462;-27
2024/04/05 00:27:32;;;;;;;8.70;3.40;;;;;;;5.80;62.35;98866.98;105730;1258;72630;-27
2024/04/05 00:30:00;;;;;;;4.50;2.50;;;;;;;5.66;62.67;98864.92;105697;1256;71651;-27
2024/04/05 00:34:04;;;;;;;5.90;3.80;;;;;;;6.53;63.14;98865.51;102586;1292;600146;-28
2024/04/05 00:36:32;;;;;;;12.00;4.80;;;;;;;7.15;60.90;98862.66;104823;1267;61031;-29
2024/04/05 00:38:59;;;;;;;6.30;3.20;;;;;;;7.17;60.29;98862.70;104855;1270;61299;-29
2024/04/05 00:41:27;;;;;;;6.90;3.40;;;;;;;7.01;59.99;98865.73;104839;1271;72962;-28
2024/04/05 00:43:54;;;;;;;5.60;2.60;;;;;;;6.85;60.10;98862.81;105008;1269;73631;-28
2024/04/05 00:46:22;;;;;;;7.50;3.70;;;;;;;6.70;60.29;98860.41;104861;1267;71302;-28
2024/04/05 00:48:49;;;;;;;8.20;4.60;;;;;;;6.53;60.81;98860.55;101400;1269;4736610;-28
2024/04/05 00:51:17;;;;;;;7.10;4.30;;;;;;;6.39;61.43;98862.84;105174;1269;61160;-28
2024/04/05 00:53:44;;;;;;;6.90;3.80;;;;;;;6.24;62.21;98868.98;105146;1264;61079;-29
2024/04/05 00:56:12;;;;;;;4.80;3.40;;;;;;;6.09;62.60;98867.91;105186;1269;73418;-28
2024/04/05 00:58:40;;;;;;;5.60;2.60;;;;;;;5.95;63.26;98864.84;105193;1264;72707;-28
2024/04/05 01:01:08;;;;;;;10.60;4.30;;;;;;;6.52;63.62;98863.85;105148;1269;61134;-28
2024/04/05 01:03:35;;;;;;;8.20;3.70;;;;;;;7.24;61.69;98862.77;104945;1269;61189;-28
2024/04/05 01:06:03;;;;;;;5.00;3.70;;;;;;;7.41;60.79;98862.79;104830;1267;73870;-29
2024/04/05 01:08:31;;;;;;;7.00;4.20;;;;;;;7.32;60.51;98866.14;105591;1263;74310;-28
2024/04/05 01:10:58;;;;;;;11.50;3.50;;;;;;;7.16;60.35;98864.81;105262;1260;72743;-29
2024/04/05 01:13:26;;;;;;;5.80;3.30;;;;;;;6.99;60.77;98863.44;105308;1261;61182;-28
2024/04/05 01:15:53;;;;;;;6.80;3.70;;;;;;;6.82;60.92;98861.67;105521;1259;61754;-29
2024/04/05 01:18:21;;;;;;;8.00;4.10;;;;;;;6.71;61.58;98867.06;105490;1257;73831;-28
2024/04/05 01:20:50;;;;;;;7.20;4.00;;;;;;;6.61;61.64;98869.28;105523;1257;74465;-28
2024/04/05 01:23:17;;;;;;;6.60;3.90;;;;;;;6.53;61.94;98867.59;105410;1263;72683;-28
2024/04/05 01:25:45;;;;;;;5.60;3.20;;;;;;;6.41;62.31;98870.81;105094;1257;60991;-28
2024/04/05 01:28:13;;;;;;;6.80;3.10;;;;;;;6.98;62.53;98870.08;105388;1263;61483;-28
2024/04/05 01:30:40;;;;;;;7.40;3.80;;;;;;;7.76;60.73;98870.25;105204;1264;72612;-28
2024/04/05 01:33:08;;;;;;;5.00;2.30;;;;;;;7.98;59.48;98871.44;105248;1257;74342;-29
2024/04/05 01:35:37;;;;;;;7.80;4.50;;;;;;;7.91;59.05;98872.52;105230;1260;72735;-29
2024/04/05 01:38:05;;;;;;;4.90;3.50;;;;;;;7.75;58.86;98878.85;105111;1265;61186;-28
2024/04/05 01:40:32;;;;;;;7.20;2.80;;;;;;;7.57;59.00;98884.93;105286;1257;61249;-29
2024/04/05 01:43:01;;;;;;;6.00;3.70;;;;;;;7.44;59.34;98884.80;105471;1263;73851;-28
2024/04/05 01:45:29;;;;;;;4.90;3.20;;;;;;;7.35;59.61;98886.73;105480;1263;73624;-28
2024/04/05 01:47:56;;;;;;;9.70;3.70;;;;;;;7.30;59.95;98887.15;105277;1260;72785;-28
2024/04/05 01:50:24;;;;;;;7.60;3.70;;;;;;;7.26;60.09;98888.99;105342;1261;61237;-28
2024/04/05 01:52:51;;;;;;;5.90;3.60;;;;;;;7.22;60.58;98891.00;105259;1258;61103;-28
2024/04/05 01:55:19;;;;;;;5.80;2.80;;;;;;;7.13;61.09;98894.42;105157;1258;72517;-28
2024/04/05 01:57:46;;;;;;;6.50;3.70;;;;;;;7.73;61.05;98892.95;105204;1264;74443;-28
2024/04/05 02:00:14;;;;;;;7.90;4.50;;;;;;;8.49;59.30;98893.86;105243;1263;72754;-29
2024/04/05 02:02:43;;;;;;;9.70;5.00;;;;;;;8.58;58.77;98892.33;105337;1263;61125;-29
2024/04/05 02:05:10;;;;;;;9.80;4.80;;;;;;;8.50;58.85;98889.98;105398;1262;61128;-29
2024/04/05 02:07:37;;;;;;;9.50;3.80;;;;;;;8.35;58.97;98889.02;105523;1262;74258;-28
2024/04/05 02:10:06;;;;;;;7.20;4.00;;;;;;;8.17;59.09;98883.70;105188;1265;74547;-29
2024/04/05 02:12:33;;;;;;;6.90;3.70;;;;;;;8.02;59.41;98887.40;105360;1261;72652;-29
2024/04/05 02:15:01;;;;;;;6.80;3.80;;;;;;;7.87;59.94;98888.69;105279;1262;61384;-29
2024/04/05 02:17:28;;;;;;;5.10;2.90;;;;;;;7.74;59.93;98885.48;105384;1263;61102;-28
2024/04/05 02:19:56;;;;;;;8.30;4.20;;;;;;;7.58;60.24;98884.52;105285;1266;73823;-28
2024/04/05 02:22:23;;;;;;;12.90;4.30;;;;;;;7.45;60.57;98877.48;105277;1266;74287;-28
2024/04/05 02:24:51;;;;;;;7.80;4.60;;;;;;;7.33;60.57;98877.14;105273;1264;72709;-29
2024/04/05 02:27:18;;;;;;;3.40;2.00;;;;;;;7.18;61.82;98877.48;105249;1260;61141;-29
2024/04/05 02:29:46;;;;;;;9.10;3.70;;;;;;;7.75;61.24;98881.73;105525;1263;61163;-28
2024/04/05 02:32:13;;;;;;;8.20;4.00;;;;;;;8.47;59.86;98883.97;105263;1265;73801;-29
2024/04/05 02:34:41;;;;;;;8.40;4.20;;;;;;;8.62;59.16;98876.27;105198;1264;74315;-27
2024/04/05 02:37:08;;;;;;;9.60;4.40;;;;;;;8.50;59.30;98877.02;105142;1263;72722;-27
2024/04/05 02:39:36;;;;;;;7.70;3.30;;;;;;;8.29;59.68;98881.68;105062;1263;61167;-27
2024/04/05 02:42:03;;;;;;;7.40;3.90;;;;;;;8.06;59.69;98884.73;105362;1263;61091;-27
2024/04/05 02:44:31;;;;;;;12.10;5.60;;;;;;;7.85;60.58;98883.95;105362;1261;73799;-27
2024/04/05 02:46:58;;;;;;;9.60;5.10;;;;;;;7.70;61.47;98881.39;105082;1257;74431;-27
2024/04/05 02:49:26;;;;;;;9.20;4.70;;;;;;;7.56;61.54;98880.48;105224;1263;72656;-27
2024/04/05 02:51:53;;;;;;;7.80;4.10;;;;;;;7.49;61.61;98876.69;105352;1262;61070;-27
2024/04/05 02:54:21;;;;;;;8.00;2.70;;;;;;;7.38;61.79;98873.02;105257;1266;61096;-30
2024/04/05 02:56:48;;;;;;;7.70;3.80;;;;;;;7.88;61.40;98868.37;105245;1263;73863;-27
2024/04/05 02:59:15;;;;;;;9.80;5.10;;;;;;;8.59;59.61;98863.70;105265;1264;74343;-27
2024/04/05 03:01:43;;;;;;;10.70;5.10;;;;;;;8.73;58.94;98861.23;105211;1265;72684;-27
2024/04/05 03:04:11;;;;;;;14.50;5.50;;;;;;;8.67;58.70;98863.30;105508;1260;61141;-27
2024/04/05 03:06:38;;;;;;;9.80;4.20;;;;;;;8.49;59.12;98860.77;105198;1265;61187;-27
2024/04/05 03:09:06;;;;;;;10.00;4.70;;;;;;;8.26;59.44;98860.61;105349;1263;71974;-27
2024/04/05 03:11:33;;;;;;;8.30;4.50;;;;;;;8.01;59.55;98856.88;105271;1264;74417;-27
2024/04/05 03:14:01;;;;;;;10.00;4.10;;;;;;;7.79;60.21;98855.05;105345;1259;72765;-27
2024/04/05 03:16:28;;;;;;;7.10;3.70;;;;;;;7.63;60.50;98853.10;105495;1263;61158;-27
2024/04/05 03:18:55;;;;;;;6.50;3.90;;;;;;;7.46;60.35;98859.63;105361;1260;61116;-27
2024/04/05 03:21:23;;;;;;;3.10;2.00;;;;;;;7.28;61.17;98860.58;105523;1263;73912;-27
2024/04/05 03:23:52;;;;;;;5.40;2.90;;;;;;;7.75;60.83;98858.92;105391;1263;73579;-27
2024/04/05 03:26:20;;;;;;;6.20;3.50;;;;;;;8.43;59.11;98853.60;105087;1261;72633;-27
2024/04/05 03:28:48;;;;;;;7.30;3.30;;;;;;;8.55;58.28;98850.48;105098;1271;61150;-27
2024/04/05 03:31:15;;;;;;;6.00;3.50;;;;;;;8.41;58.26;98853.58;105117;1266;61198;-27
2024/04/05 03:33:43;;;;;;;7.50;3.50;;;;;;;8.19;58.63;98856.96;105451;1262;73886;-27
2024/04/05 03:36:10;;;;;;;7.80;3.30;;;;;;;7.95;59.05;98862.30;105426;1263;74349;-27
2024/04/05 03:38:38;;;;;;;5.00;2.70;;;;;;;7.72;59.31;98864.89;105186;1265;72698;-27
2024/04/05 03:41:06;;;;;;;6.10;3.10;;;;;;;7.51;59.57;98867.56;105340;1263;61112;-27
2024/04/05 03:43:34;;;;;;;7.70;3.40;;;;;;;7.34;59.94;98865.14;105415;1263;61253;-27
2024/04/05 03:46:02;;;;;;;5.80;2.70;;;;;;;7.16;60.20;98861.71;105148;1260;74014;-27
2024/04/05 03:48:29;;;;;;;3.40;2.20;;;;;;;7.04;60.26;98866.36;105345;1263;73209;-27
2024/04/05 03:50:57;;;;;;;3.50;2.00;;;;;;;6.87;61.03;98867.54;105498;1262;71415;-27
2024/04/05 03:53:28;;;;;;;6.80;2.70;;;;;;;7.41;61.26;98870.38;105139;1262;61159;-27
2024/04/05 03:55:56;;;;;;;4.70;3.00;;;;;;;8.15;59.66;98864.16;105269;1263;61233;-27
2024/04/05 03:58:24;;;;;;;6.90;2.90;;;;;;;8.31;58.54;98856.42;105176;1263;72543;-27
2024/04/05 04:00:52;;;;;;;6.80;3.30;;;;;;;8.22;58.32;98855.70;105318;1264;73398;-27
2024/04/05 04:03:19;;;;;;;3.90;2.50;;;;;;;8.09;58.61;98849.59;105035;1261;72724;-27
2024/04/05 04:05:47;;;;;;;3.10;1.90;;;;;;;7.91;58.80;98845.02;105259;1259;61094;-27
2024/04/05 04:08:15;;;;;;;6.50;3.20;;;;;;;7.84;59.19;98849.85;105204;1263;61103;-27
2024/04/05 04:10:42;;;;;;;3.80;2.70;;;;;;;7.86;59.95;98850.86;105283;1263;72605;-27
2024/04/05 04:13:10;;;;;;;6.00;2.80;;;;;;;7.88;60.11;98855.59;105400;1264;74478;-27
2024/04/05 04:15:37;;;;;;;5.10;3.00;;;;;;;7.84;60.51;98854.83;105510;1262;72695;-28
2024/04/05 04:18:05;;;;;;;2.80;2.10;;;;;;;7.83;61.03;98852.66;105440;1259;61143;-27
2024/04/05 04:20:32;;;;;;;8.20;3.50;;;;;;;8.57;60.99;98847.52;105148;1266;61246;-27
2024/04/05 04:23:00;;;;;;;8.00;3.60;;;;;;;9.49;59.10;98846.86;105372;1263;73955;-27
2024/04/05 04:25:27;;;;;;;8.10;3.50;;;;;;;9.79;57.38;98846.36;105364;1263;74511;-27
2024/04/05 04:27:55;;;;;;;8.40;3.20;;;;;;;9.80;57.18;98844.86;105483;1272;72649;-27
2024/04/05 04:30:22;;;;;;;7.60;3.40;;;;;;;9.85;57.01;98841.37;105452;1262;61122;-27
2024/04/05 04:32:50;;;;;;;4.80;3.20;;;;;;;9.91;56.83;98843.50;105294;1259;61259;-27
2024/04/05 04:35:18;;;;;;;7.70;4.10;;;;;;;9.88;56.32;98842.73;105330;1263;73803;-27
2024/04/05 04:37:45;;;;;;;9.80;4.60;;;;;;;9.91;56.71;98841.77;105350;1262;73447;-28
2024/04/05 04:40:13;;;;;;;9.10;4.50;;;;;;;9.84;56.73;98847.33;105305;1260;72717;-29
2024/04/05 04:42:40;;;;;;;8.70;4.20;;;;;;;9.72;57.22;98848.35;105170;1262;61362;-28
2024/04/05 04:45:08;;;;;;;9.10;4.40;;;;;;;9.55;57.50;98850.33;105260;1273;61284;-29
2024/04/05 04:47:36;;;;;;;7.00;3.50;;;;;;;9.41;58.10;98854.27;105340;1273;74652;-29
2024/04/05 04:50:04;;;;;;;5.90;3.10;;;;;;;9.28;57.98;98858.59;105253;1264;72179;-33
2024/04/05 04:52:32;;;;;;;4.20;2.50;;;;;;;9.16;58.85;98858.67;105295;1264;72847;-29
2024/04/05 04:54:59;;;;;;;6.90;3.40;;;;;;;9.79;58.66;98861.95;105233;1261;61308;-30
2024/04/05 04:57:27;;;;;;;7.90;3.90;;;;;;;10.53;57.31;98862.73;105569;1265;61257;-28
2024/04/05 04:59:55;;;;;;;5.10;3.00;;;;;;;10.75;56.46;98865.25;105536;1257;75065;-31
2024/04/05 05:02:22;;;;;;;4.90;3.10;;;;;;;10.72;56.25;98864.28;105342;1264;73083;-30
2024/04/05 05:04:49;;;;;;;5.90;3.40;;;;;;;10.58;56.55;98867.64;105391;1262;72687;-28
2024/04/05 05:07:18;;;;;;;6.40;3.50;;;;;;;10.40;56.68;98872.58;105299;1257;61185;-28
2024/04/05 05:09:45;;;;;;;7.80;3.70;;;;;;;10.30;57.29;98873.46;105541;1258;61993;-30
2024/04/05 05:12:13;;;;;;;6.00;3.40;;;;;;;10.19;57.42;98872.21;105537;1258;74601;-31
2024/04/05 05:14:40;;;;;;;7.50;3.90;;;;;;;10.12;57.96;98866.56;105162;1264;74459;-31
2024/04/05 05:17:08;;;;;;;6.70;3.90;;;;;;;10.08;58.63;98869.69;105231;1266;72750;-30
2024/04/05 05:19:35;;;;;;;6.80;3.00;;;;;;;10.05;59.28;98867.36;105397;1261;61362;-30
2024/04/05 05:22:03;;;;;;;6.00;3.50;;;;;;;9.99;59.10;98865.42;105372;1260;61317;-30
2024/04/05 05:24:31;;;;;;;5.50;2.10;;;;;;;9.95;60.15;98864.17;105265;1265;74598;-31
2024/04/05 05:26:59;;;;;;;7.20;3.30;;;;;;;10.62;59.36;98863.32;105236;1258;74283;-31
2024/04/05 05:29:26;;;;;;;6.80;3.60;;;;;;;11.37;57.62;98862.17;105209;1265;73314;-28
2024/04/05 05:31:53;;;;;;;7.40;3.50;;;;;;;11.61;56.63;98862.20;105267;1257;61429;-34
2024/04/05 05:34:21;;;;;;;8.30;3.40;;;;;;;11.57;56.51;98866.89;105300;1263;61301;-30
2024/04/05 05:36:49;;;;;;;5.70;2.80;;;;;;;11.47;56.53;98871.08;105252;1257;74663;-28
2024/04/05 05:39:16;;;;;;;4.90;2.70;;;;;;;11.36;57.27;98869.52;105242;1263;74313;-32
2024/04/05 05:41:44;;;;;;;6.70;2.70;;;;;;;11.25;57.29;98873.29;105206;1263;71203;-28
2024/04/05 05:44:11;;;;;;;5.30;3.40;;;;;;;11.17;57.56;98875.38;105432;1263;61322;-30
2024/04/05 05:46:39;;;;;;;9.10;3.70;;;;;;;11.05;57.79;98875.48;105374;1258;61305;-30
2024/04/05 05:49:06;;;;;;;6.10;3.40;;;;;;;10.92;58.24;98876.95;105258;1264;74870;-31
2024/04/05 05:51:34;;;;;;;5.20;3.10;;;;;;;10.86;58.92;98871.22;105279;1264;74635;-30
2024/04/05 05:54:02;;;;;;;5.70;2.60;;;;;;;10.72;59.74;98873.41;105473;1258;72762;-33
2024/04/05 05:56:29;;;;;;;6.70;3.40;;;;;;;11.26;59.10;98870.81;105231;1264;61285;-29
2024/04/05 05:58:57;;;;;;;5.70;3.00;;;;;;;11.78;57.59;98869.34;105483;1258;61336;-33
2024/04/05 06:01:24;;;;;;;8.00;3.20;;;;;;;11.94;57.31;98871.09;105407;1258;74696;-28
2024/04/05 06:03:52;;;;;;;5.50;3.50;;;;;;;11.97;57.18;98872.37;105243;1266;74456;-29
2024/04/05 06:06:19;;;;;;;8.10;4.00;;;;;;;12.01;57.35;98874.98;105442;1258;72396;-33
2024/04/05 06:08:47;;;;;;;8.40;3.20;;;;;;;12.06;57.55;98872.48;105392;1261;61385;-29
2024/04/05 06:11:15;;;;;;;9.10;3.40;;;;;;;12.12;58.06;98873.50;105359;1263;61333;-29
2024/04/05 06:13:43;;;;;;;8.00;2.70;;;;;;;12.27;58.19;98873.39;105280;1264;73219;-28
2024/04/05 06:16:11;;;;;;;7.40;4.20;;;;;;;12.46;58.29;98875.46;105479;1263;73261;-28
2024/04/05 06:18:43;;;;;;;9.50;3.70;;;;;;;12.55;57.98;98871.80;105184;1257;70505;-28
2024/04/05 06:21:10;;;;;;;4.40;3.00;;;;;;;12.69;57.81;98875.13;105186;1257;61251;-28
2024/04/05 06:23:38;;;;;;;8.20;3.70;;;;;;;12.82;57.76;98874.73;105194;1257;62303;-28
2024/04/05 06:26:05;;;;;;;3.80;2.70;;;;;;;12.93;57.11;98875.69;105137;1263;72831;-26
2024/04/05 06:28:35;;;;;;;6.30;3.60;;;;;;;12.94;57.57;98876.28;105134;1264;75093;-28
2024/04/05 06:31:06;;;;;;;6.60;2.60;;;;;;;13.21;56.95;98875.85;105479;1260;71618;-29
2024/04/05 06:33:33;;;;;;;10.30;3.30;;;;;;;13.40;56.35;98876.45;105239;1264;61186;-30
2024/04/05 06:36:01;;;;;;;11.00;3.90;;;;;;;13.60;55.67;98879.51;105229;1263;61228;-30
2024/04/05 06:38:29;;;;;;;14.40;4.00;;;;;;;13.77;55.42;98876.40;105299;1264;75254;-29
2024/04/05 06:40:57;;;;;;;5.30;3.30;;;;;;;13.73;55.48;98881.88;105513;1263;73721;-29
2024/04/05 06:43:29;;;;;;;7.50;3.40;;;;;;;13.89;55.26;98880.48;105260;1257;71962;-29
2024/04/05 06:45:58;;;;;;;9.90;4.10;;;;;;;13.98;55.26;98880.80;105269;1261;61349;-30
2024/04/05 06:48:26;;;;;;;7.60;4.50;;;;;;;14.30;55.84;98880.12;105306;1264;62345;-29
2024/04/05 06:51:11;;;;;;;11.00;3.30;;;;;;;14.72;54.96;98878.42;105417;1263;76555;-28
2024/04/05 06:53:57;;;;;;;7.00;3.90;;;;;;;14.99;54.12;98881.80;105444;1262;75678;-29
2024/04/05 06:56:24;;;;;;;5.60;3.90;;;;;;;15.28;53.62;98880.09;105412;1263;71612;-31
2024/04/05 06:59:10;;;;;;;6.20;3.80;;;;;;;15.46;52.81;98882.39;105443;1258;61269;-29
2024/04/05 07:01:37;;;;;;;6.20;3.40;;;;;;;15.45;52.19;98881.71;105257;1264;61297;-30
2024/04/05 07:04:25;;;;;;;6.60;3.70;;;;;;;15.63;51.82;98878.59;105511;1258;75971;-27
2024/04/05 07:07:11;;;;;;;11.40;3.40;;;;;;;15.56;51.68;98882.45;105573;1257;75997;-33
2024/04/05 07:09:38;;;;;;;5.90;3.60;;;;;;;16.02;51.53;98881.52;105517;1258;72887;-27
2024/04/05 07:12:24;;;;;;;5.60;2.90;;;;;;;16.20;50.19;98882.90;105517;1263;61343;-26
2024/04/05 07:15:09;;;;;;;4.00;2.40;;;;;;;16.48;50.99;98886.21;105541;1260;61247;-26
2024/04/05 07:17:56;;;;;;;6.70;3.10;;;;;;;16.75;49.23;98887.39;105622;1258;76429;-26
2024/04/05 07:20:24;;;;;;;6.90;2.40;;;;;;;17.09;48.69;98883.05;105545;1261;73554;-26
2024/04/05 07:22:52;;;;;;;6.00;2.90;;;;;;;17.15;47.67;98887.20;105600;1262;72757;-28
2024/04/05 07:25:38;;;;;;;5.10;2.80;;;;;;;17.03;48.11;98889.72;105430;1263;61366;-25
2024/04/05 07:28:06;;;;;;;4.60;2.20;;;;;;;17.24;47.71;98888.06;105587;1261;61323;-27
2024/04/05 07:30:52;;;;;;;7.00;2.10;;;;;;;17.49;46.83;98889.91;105597;1261;73733;-27
2024/04/05 07:33:40;;;;;;;3.50;2.00;;;;;;;17.63;46.46;98887.95;105622;1260;75749;-28
2024/04/05 07:36:08;;;;;;;3.50;2.40;;;;;;;17.59;46.23;98888.23;105563;1258;73368;-27
2024/04/05 07:38:36;;;;;;;7.60;1.90;;;;;;;17.36;46.49;98889.45;105439;1257;61349;-28
2024/04/05 07:41:05;;;;;;;4.00;2.10;;;;;;;17.27;46.17;98889.21;105626;1257;61199;-27
2024/04/05 07:43:33;;;;;;;6.00;2.40;;;;;;;17.41;46.74;98891.55;105318;1257;72818;-28
2024/04/05 07:46:00;;;;;;;5.20;2.10;;;;;;;17.50;46.60;98889.11;105521;1263;74511;-28
2024/04/05 07:48:46;;;;;;;5.00;2.20;;;;;;;17.50;46.06;98885.73;105562;1261;74014;-28
2024/04/05 07:51:13;;;;;;;4.90;2.20;;;;;;;17.34;46.53;98882.46;105579;1259;61233;-28
2024/04/05 07:53:41;;;;;;;5.40;2.30;;;;;;;16.82;47.03;98884.86;105607;1258;61231;-28
2024/04/05 07:56:27;;;;;;;2.60;2.10;;;;;;;16.84;47.31;98887.33;105627;1258;76015;-28
2024/04/05 07:58:54;;;;;;;4.50;2.00;;;;;;;17.03;47.45;98886.89;105520;1258;73158;-28
2024/04/05 08:01:42;;;;;;;5.60;1.90;;;;;;;17.27;46.83;98881.77;105500;1258;70858;-27
2024/04/05 08:04:11;;;;;;;6.20;2.00;;;;;;;17.54;45.95;98883.34;105549;1258;62301;-27
2024/04/05 08:06:38;;;;;;;3.20;1.90;;;;;;;17.76;46.26;98881.89;105315;1264;61308;-27
2024/04/05 08:09:07;;;;;;;6.10;1.90;;;;;;;17.84;46.21;98881.95;105544;1259;76936;-27
2024/04/05 08:11:34;;;;;;;4.60;2.30;;;;;;;17.61;45.85;98886.94;105562;1257;75957;-27
2024/04/05 08:14:02;;;;;;;3.60;2.00;;;;;;;17.77;46.10;98882.16;105565;1260;72387;-27
2024/04/05 08:16:30;;;;;;;3.70;1.90;;;;;;;18.13;45.39;98883.25;105335;1260;61253;-27
2024/04/05 08:19:15;;;;;;;4.20;1.70;;;;;;;18.37;44.33;98878.64;105576;1257;61305;-27
2024/04/05 08:21:43;;;;;;;3.50;1.40;;;;;;;18.99;43.09;98876.74;105453;1257;74872;-27
2024/04/05 08:24:29;;;;;;;3.80;2.10;;;;;;;19.12;42.49;98875.03;105560;1260;74313;-27
2024/04/05 08:27:14;;;;;;;2.20;1.50;;;;;;;19.20;42.48;98869.98;105546;1261;73969;-27
2024/04/05 08:29:42;;;;;;;2.90;1.70;;;;;;;19.45;42.24;98873.42;105611;1258;61191;-27
2024/04/05 08:32:09;;;;;;;4.80;1.90;;;;;;;19.38;42.51;98870.27;105294;1262;61211;-27
2024/04/05 08:34:37;;;;;;;4.80;1.90;;;;;;;19.20;42.24;98872.66;105237;1260;75376;-27
2024/04/05 08:37:23;;;;;;;5.50;1.80;;;;;;;19.23;42.22;98872.27;105543;1260;74918;-27
2024/04/05 08:40:09;;;;;;;5.00;1.60;;;;;;;18.92;42.88;98875.35;105475;1259;73883;-27
2024/04/05 08:42:37;;;;;;;4.40;1.70;;;;;;;18.60;43.03;98871.22;105419;1262;61266;-27
2024/04/05 08:45:11;;;;;;;2.00;1.20;;;;;;;18.60;43.36;98869.67;105441;1258;61378;-27
2024/04/05 08:47:39;;;;;;;4.10;1.60;;;;;;;18.50;43.89;98874.45;105302;1263;74984;-27
2024/04/05 08:50:08;;;;;;;2.80;1.40;;;;;;;18.45;44.17;98873.50;105209;1258;75106;-27
2024/04/05 08:52:54;;;;;;;4.40;1.80;;;;;;;18.54;43.95;98875.16;105293;1258;71412;-27
2024/04/05 08:55:41;;;;;;;5.10;1.60;;;;;;;18.48;43.94;98878.11;105591;1256;61348;-27
2024/04/05 08:58:26;;;;;;;4.60;1.80;;;;;;;18.71;44.21;98879.04;105560;1261;61624;-27
2024/04/05 09:00:54;;;;;;;3.80;1.30;;;;;;;19.17;43.57;98874.98;105440;1258;73449;-27
2024/04/05 09:03:40;;;;;;;3.50;1.30;;;;;;;19.05;43.49;98875.97;105625;1259;74561;-28
2024/04/05 09:06:07;;;;;;;2.80;1.80;;;;;;;18.78;44.44;98872.69;105325;1259;72999;-28
2024/04/05 09:08:51;;;;;;;2.20;1.30;;;;;;;18.69;44.55;98876.05;105323;1259;61259;-27
2024/04/05 09:11:25;;;;;;;3.20;1.20;;;;;;;18.87;44.53;98886.89;105546;1257;61878;-28
2024/04/05 09:13:59;;;;;;;2.10;1.30;;;;;;;18.95;44.22;98885.41;105460;1258;74707;-26
2024/04/05 09:16:45;;;;;;;4.80;1.20;;;;;;;18.58;45.05;98880.27;105365;1257;75698;-26
2024/04/05 09:19:31;;;;;;;3.30;1.10;;;;;;;18.43;45.97;98886.48;105566;1260;73927;-26
2024/04/05 09:22:20;;;;;;;3.20;1.20;;;;;;;18.45;45.70;98889.02;105588;1258;61674;-26
2024/04/05 09:25:06;;;;;;;3.00;1.00;;;;;;;18.32;46.23;98882.83;105361;1260;61669;-27
2024/04/05 09:27:53;;;;;;;1.50;0.90;;;;;;;18.05;47.35;98891.33;105427;1260;73402;-28
2024/04/05 09:30:21;;;;;;;1.50;0.90;;;;;;;18.06;47.36;98890.30;105498;1260;73947;-28
2024/04/05 09:33:07;;;;;;;1.10;0.80;;;;;;;18.06;47.95;98891.35;105576;1261;75816;-28
2024/04/05 09:35:54;;;;;;;0.90;0.60;;;;;;;17.91;47.66;98896.74;105599;1257;61626;-29
2024/04/05 09:38:22;;;;;;;1.30;0.80;;;;;;;17.74;48.56;98895.80;105611;1256;61295;-29
2024/04/05 09:40:50;;;;;;;2.40;0.60;;;;;;;17.77;49.12;98901.64;105562;1257;74920;-27
2024/04/05 09:43:17;;;;;;;2.00;0.70;;;;;;;17.72;49.10;98907.63;105194;1262;73661;-27
2024/04/05 09:46:04;;;;;;;0.70;0.60;;;;;;;17.75;48.58;98904.20;105608;1260;71365;-27
2024/04/05 09:48:50;;;;;;;0.80;0.60;;;;;;;17.78;48.34;98902.79;105623;1258;61225;-26
2024/04/05 09:51:20;;;;;;;0.70;0.60;;;;;;;17.74;47.66;98898.17;105350;1257;61226;-27
2024/04/05 09:54:06;;;;;;;0.70;0.50;;;;;;;17.65;47.92;98903.05;105570;1258;73254;-27
2024/04/05 09:56:52;;;;;;;1.10;0.80;;;;;;;17.44;49.21;98905.09;105569;1261;75634;-26
2024/04/05 09:59:37;;;;;;;1.30;0.80;;;;;;;17.40;49.24;98904.21;105578;1259;73995;-26
2024/04/05 10:02:23;;;;;;;1.50;0.90;;;;;;;17.36;48.79;98905.35;105583;1259;61647;-27
2024/04/05 10:04:50;;;;;;;1.80;0.90;;;;;;;17.41;49.13;98911.35;105153;1256;61299;-27
2024/04/05 10:07:36;;;;;;;2.20;1.00;;;;;;;17.25;50.30;98918.73;105432;1257;77757;-26
2024/04/05 10:10:10;;;;;;;2.00;1.10;;;;;;;17.23;50.61;98922.58;105136;1263;74484;-27
2024/04/05 10:12:38;;;;;;;2.90;1.10;;;;;;;17.22;51.41;98927.27;105426;1260;71503;-27
2024/04/05 10:15:06;;;;;;;0.70;0.70;;;;;;;17.08;51.52;98929.03;105554;1257;61330;-28
2024/04/05 10:17:56;;;;;;;1.40;0.80;;;;;;;17.12;51.83;98924.91;105457;1257;61317;-27
2024/04/05 10:20:24;;;;;;;0.90;0.60;;;;;;;17.11;52.36;98930.60;105203;1264;74136;-27
2024/04/05 10:23:01;;;;;;;1.50;0.80;;;;;;;17.01;53.18;98930.26;105184;1260;75175;-28
2024/04/05 10:25:47;;;;;;;0.90;0.60;;;;;;;16.55;56.09;98934.72;105260;1257;71281;-27
2024/04/05 10:28:33;;;;;;;0.60;0.50;;;;;;;16.36;56.88;98938.70;105511;1257;62007;-28
2024/04/05 10:31:02;;;;;;;1.80;0.80;;;;;;;16.16;58.17;98944.80;105651;1257;61196;-28
2024/04/05 10:33:47;;;;;;;0.80;0.80;;;;;;;16.12;57.79;98945.05;105581;1259;73550;-28
2024/04/05 10:36:33;;;;;;;1.30;0.80;;;;;;;16.03;59.15;98945.35;105297;1261;76170;-28
2024/04/05 10:39:22;;;;;;;2.90;0.80;;;;;;;16.15;57.87;98943.19;105623;1257;74006;-28
2024/04/05 10:41:50;;;;;;;2.60;0.60;;;;;;;16.91;55.83;98946.94;105516;1259;61471;-28
2024/04/05 10:44:35;;;;;;;1.10;0.60;;;;;;;17.38;55.00;98945.14;105600;1256;61316;-28
2024/04/05 10:47:22;;;;;;;1.30;0.60;;;;;;;17.53;54.01;98948.89;105618;1258;75895;-28
2024/04/05 10:49:58;;;;;;;2.20;0.50;;;;;;;17.33;55.08;98948.13;105499;1257;74464;-28
2024/04/05 10:52:26;;;;;;;1.30;0.80;;;;;;;17.24;55.07;98947.22;105182;1262;72792;-28
2024/04/05 10:55:12;;;;;;;0.80;0.70;;;;;;;17.17;55.21;98951.73;105564;1260;61718;-28
2024/04/05 10:57:40;;;;;;;1.90;1.00;;;;;;;17.18;55.51;98949.43;105693;1257;62288;-27
2024/04/05 11:00:25;;;;;;;2.50;0.70;;;;;;;17.63;54.03;98946.99;105561;1257;73377;-27
2024/04/05 11:03:13;;;;;;;1.60;0.80;;;;;;;17.31;54.53;98944.75;105547;1257;75571;-27
2024/04/05 11:06:05;;;;;;;2.50;0.70;;;;;;;17.54;53.76;98946.75;105575;1257;71400;-27
2024/04/05 11:08:33;;;;;;;1.50;0.50;;;;;;;17.40;52.94;98949.21;105287;1265;61333;-27
2024/04/05 11:11:10;;;;;;;0.50;0.50;;;;;;;17.50;53.00;98947.60;105615;1257;61224;-27
2024/04/05 11:14:03;;;;;;;0.40;0.40;;;;;;;17.02;54.86;98948.59;105509;1255;76015;-28
2024/04/05 11:16:31;;;;;;;1.00;0.70;;;;;;;16.90;54.72;98945.83;105262;1258;75021;-27
2024/04/05 11:19:24;;;;;;;1.90;1.20;;;;;;;17.08;54.41;98952.02;105275;1255;72264;-28
2024/04/05 11:22:02;;;;;;;1.60;0.70;;;;;;;16.89;55.07;98947.34;105326;1263;61190;-27
2024/04/05 11:24:30;;;;;;;1.90;0.60;;;;;;;16.87;54.92;98946.33;105392;1258;61199;-28
2024/04/05 11:27:21;;;;;;;1.30;0.60;;;;;;;16.83;55.11;98948.41;105221;1257;76041;-28
2024/04/05 11:30:08;;;;;;;0.90;0.70;;;;;;;16.81;56.02;98950.83;105381;1257;75628;-28
2024/04/05 11:32:40;;;;;;;1.30;0.50;;;;;;;16.62;56.75;98951.27;105455;1257;71941;-28
2024/04/05 11:35:27;;;;;;;0.60;0.50;;;;;;;16.40;57.78;98945.40;105584;1257;61662;-27
2024/04/05 11:38:13;;;;;;;1.80;0.50;;;;;;;16.03;59.95;98946.20;105563;1257;63323;-26
2024/04/05 11:40:58;;;;;;;2.00;0.60;;;;;;;16.61;58.96;98952.63;105339;1259;73250;-26
2024/04/05 11:43:27;;;;;;;1.40;0.70;;;;;;;16.97;59.25;98955.44;105313;1257;74626;-27
2024/04/05 11:45:55;;;;;;;1.10;0.80;;;;;;;17.06;57.98;98952.21;105363;1257;74998;-27
2024/04/05 11:48:42;;;;;;;3.40;0.80;;;;;;;16.73;57.70;98948.92;105523;1257;61669;-27
2024/04/05 11:51:09;;;;;;;2.60;0.80;;;;;;;16.56;59.18;98957.09;105378;1256;61317;-25